Scroll down
FLIGHT INFORMATION
Ryanair

RYR208

At Arrival Gate

EGNX
 EGKK
DATE: 2020-02-08
GATE: 
GATE DEPARTURE: 15:55
TAKEOFF: 16:03
DATE: 2020-02-08
GATE:  -
LANDING: 16:38
GATE ARRIVAL: 16:42
FLIGHT DATA
Crew: 
Speed: 
666 kph
Altitude: 
25,088 ft
Stage Length: 
202.7 km
Block Time: 
0.8 hrs
Flight Time: 
0.6 hrs
Fuel Used: 
1,697 kg
Cleared Route: 
TRACK DATA
50,000 ft 1,000 kts
AIRCRAFT INFO AND CUMULATIVE STATS
Aircraft Type: 
B737BW
Registration: 
SELCAL: 
NULL
MSN/LN: 
29078 / 187
Operator: 
Total Flights: 
3
Total Block Time: 
2.5 hrs
Total Flight Time: 
1.8 hrs
Total Fuel Used: 
5,168 kg
DATALINK LOG | Newest first | Current as of: 2022-10-05 20:53:02
LABEL SEQUENCE CONTENT Dn/Up
QD435416:42 12.3▼ Dn
QC394716:38▼ Dn
2U1223EGKK 221920Z 22005KT 9999 FEW038 07/06 Q0992▲ Up
2S1223EGKK▼ Dn
GA1731ADVANCED GATE ASSIGNMENTS NOT YET AVAILABLE AT THIS AIRPORT▲ Up
GR1252EGKK --:-- YP/UM 00/02 HI-VAL NO▼ Dn
QB031916:03▼ Dn
QA564515:55 16▼ Dn
Q05403[LINK ACK]▲ Up
Q05202[LINK TEST]▼ Dn
Q04656[LINK ACK]▲ Up
Q04503[LINK TEST]▼ Dn
A33849CLEARED TO EGKK VIA DTY3N DTY WCO MID TIMB1D. SQUAWK 4562.▲ Up
B33639EGNX EGKK RYR208 C ▼ Dn
A33756CLEARED TO EGKK VIA DTY3N DTY WCO MID TIMB1D. SQUAWK 4231.▲ Up
B33639EGNX EGKK RYR208 C ▼ Dn
2U3541EGNX 221920Z 22010KT 9999 BKN031 07/05 Q0990▲ Up
2S3541EGNX▼ Dn
Q03142[LINK ACK]▲ Up
Q03004[LINK TEST]▼ Dn


AIRCRAFT HISTORY
FLIGHT DATE FLIGHT NO. ORIGIN DESTINATION CLEARED ROUTE BLOCK TIME FLIGHT TIME FUEL USED PILOT
2020-08-02RYR211EGCC EGNX EGCC TABLY HON58 SANBA PEDIG EME EGNX0.6 hrs0.4 hrs2,876 lb-HIDDEN-
2020-08-02RYR232EGKK EGCC EGKK KKW02 KKE09 KKE11 KKE15 SUNAV KKE35 KKN43 KKN48 LAM WELIN SAPCO TNT D312E DAYNE CF23R RW23R1 hrs0.7 hrs4,777 lb-HIDDEN-
2020-02-08RYR208EGNX EGKK 0.8 hrs0.6 hrs3,741 lb-HIDDEN-